sensor_id;sensor_type;location;lat;lon;timestamp;temperature;humidity
22503;DHT22;11418;48.118;9.992;2022-08-03T00:02:57;14.90;99.90
22503;DHT22;11418;48.118;9.992;2022-08-03T00:06:57;14.80;99.90
22503;DHT22;11418;48.118;9.992;2022-08-03T00:10:58;14.80;99.90
22503;DHT22;11418;48.118;9.992;2022-08-03T00:14:59;14.70;99.90
22503;DHT22;11418;48.118;9.992;2022-08-03T00:19:01;14.70;99.90
22503;DHT22;11418;48.118;9.992;2022-08-03T00:23:01;14.70;99.90
22503;DHT22;11418;48.118;9.992;2022-08-03T00:27:02;14.70;99.90
22503;DHT22;11418;48.118;9.992;2022-08-03T00:31:03;14.70;99.90
22503;DHT22;11418;48.118;9.992;2022-08-03T00:35:03;14.70;99.90
22503;DHT22;11418;48.118;9.992;2022-08-03T00:39:04;14.60;99.90
22503;DHT22;11418;48.118;9.992;2022-08-03T00:43:06;14.60;99.90
22503;DHT22;11418;48.118;9.992;2022-08-03T00:47:07;14.50;99.90
22503;DHT22;11418;48.118;9.992;2022-08-03T00:51:09;14.50;99.90
22503;DHT22;11418;48.118;9.992;2022-08-03T00:55:10;14.40;99.90
22503;DHT22;11418;48.118;9.992;2022-08-03T00:59:11;14.50;99.90
22503;DHT22;11418;48.118;9.992;2022-08-03T01:03:13;14.40;99.90
22503;DHT22;11418;48.118;9.992;2022-08-03T01:20:21;14.00;99.90
22503;DHT22;11418;48.118;9.992;2022-08-03T01:29:03;14.10;99.90
22503;DHT22;11418;48.118;9.992;2022-08-03T01:33:19;14.10;99.90
22503;DHT22;11418;48.118;9.992;2022-08-03T01:37:25;14.10;99.90
22503;DHT22;11418;48.118;9.992;2022-08-03T01:41:33;14.00;99.90
22503;DHT22;11418;48.118;9.992;2022-08-03T01:45:35;14.00;99.90
22503;DHT22;11418;48.118;9.992;2022-08-03T01:49:38;14.00;99.90
22503;DHT22;11418;48.118;9.992;2022-08-03T01:53:40;13.70;99.90
22503;DHT22;11418;48.118;9.992;2022-08-03T01:57:44;13.70;99.90
22503;DHT22;11418;48.118;9.992;2022-08-03T02:01:48;13.60;99.90
22503;DHT22;11418;48.118;9.992;2022-08-03T02:05:49;13.50;99.90
22503;DHT22;11418;48.118;9.992;2022-08-03T02:09:52;13.50;99.90
22503;DHT22;11418;48.118;9.992;2022-08-03T02:13:53;13.40;99.90
22503;DHT22;11418;48.118;9.992;2022-08-03T02:17:56;13.30;99.90
22503;DHT22;11418;48.118;9.992;2022-08-03T02:21:58;13.50;99.90
22503;DHT22;11418;48.118;9.992;2022-08-03T02:26:02;13.50;99.90
22503;DHT22;11418;48.118;9.992;2022-08-03T02:30:07;13.70;99.90
22503;DHT22;11418;48.118;9.992;2022-08-03T02:34:12;13.70;99.90
22503;DHT22;11418;48.118;9.992;2022-08-03T02:38:14;13.50;99.90
22503;DHT22;11418;48.118;9.992;2022-08-03T02:42:19;13.40;99.90
22503;DHT22;11418;48.118;9.992;2022-08-03T02:46:26;13.40;99.90
22503;DHT22;11418;48.118;9.992;2022-08-03T02:50:28;13.30;99.90
22503;DHT22;11418;48.118;9.992;2022-08-03T02:54:30;13.20;99.90
22503;DHT22;11418;48.118;9.992;2022-08-03T02:58:32;13.40;99.90
22503;DHT22;11418;48.118;9.992;2022-08-03T03:02:34;13.40;99.90
22503;DHT22;11418;48.118;9.992;2022-08-03T03:06:36;13.30;99.90
22503;DHT22;11418;48.118;9.992;2022-08-03T03:10:38;13.20;99.90
22503;DHT22;11418;48.118;9.992;2022-08-03T03:14:39;13.10;99.90
22503;DHT22;11418;48.118;9.992;2022-08-03T03:18:40;13.00;99.90
22503;DHT22;11418;48.118;9.992;2022-08-03T03:22:42;13.00;99.90
22503;DHT22;11418;48.118;9.992;2022-08-03T03:26:44;12.80;99.90
22503;DHT22;11418;48.118;9.992;2022-08-03T03:30:44;12.90;99.90
22503;DHT22;11418;48.118;9.992;2022-08-03T03:34:45;13.00;99.90
22503;DHT22;11418;48.118;9.992;2022-08-03T03:38:47;13.10;99.90
22503;DHT22;11418;48.118;9.992;2022-08-03T03:42:48;13.20;99.90
22503;DHT22;11418;48.118;9.992;2022-08-03T03:46:49;13.20;99.90
22503;DHT22;11418;48.118;9.992;2022-08-03T03:50:49;13.10;99.90
22503;DHT22;11418;48.118;9.992;2022-08-03T03:54:50;13.30;99.90
22503;DHT22;11418;48.118;9.992;2022-08-03T03:58:51;13.40;99.90
22503;DHT22;11418;48.118;9.992;2022-08-03T04:02:52;13.30;99.90
22503;DHT22;11418;48.118;9.992;2022-08-03T04:06:52;13.10;99.90
22503;DHT22;11418;48.118;9.992;2022-08-03T04:15:26;13.00;99.90
22503;DHT22;11418;48.118;9.992;2022-08-03T04:19:41;12.90;99.90
22503;DHT22;11418;48.118;9.992;2022-08-03T04:23:47;12.90;99.90
22503;DHT22;11418;48.118;9.992;2022-08-03T04:27:49;13.00;99.90
22503;DHT22;11418;48.118;9.992;2022-08-03T04:31:53;13.10;99.90
22503;DHT22;11418;48.118;9.992;2022-08-03T04:35:56;13.40;99.90
22503;DHT22;11418;48.118;9.992;2022-08-03T04:40:01;13.50;99.90
22503;DHT22;11418;48.118;9.992;2022-08-03T04:44:04;13.60;99.90
22503;DHT22;11418;48.118;9.992;2022-08-03T04:48:06;13.60;99.90
22503;DHT22;11418;48.118;9.992;2022-08-03T04:52:07;13.80;99.90
22503;DHT22;11418;48.118;9.992;2022-08-03T04:56:09;14.10;99.90
22503;DHT22;11418;48.118;9.992;2022-08-03T05:00:10;14.30;99.90
22503;DHT22;11418;48.118;9.992;2022-08-03T05:04:11;14.50;99.90
22503;DHT22;11418;48.118;9.992;2022-08-03T05:08:11;14.70;99.90
22503;DHT22;11418;48.118;9.992;2022-08-03T05:12:12;15.10;99.90
22503;DHT22;11418;48.118;9.992;2022-08-03T05:16:13;15.30;99.90
22503;DHT22;11418;48.118;9.992;2022-08-03T05:20:14;15.60;99.90
22503;DHT22;11418;48.118;9.992;2022-08-03T05:24:14;15.90;99.90
22503;DHT22;11418;48.118;9.992;2022-08-03T05:28:15;16.00;99.90
22503;DHT22;11418;48.118;9.992;2022-08-03T05:32:16;16.30;99.90
22503;DHT22;11418;48.118;9.992;2022-08-03T05:36:17;16.40;99.90
22503;DHT22;11418;48.118;9.992;2022-08-03T05:40:17;16.80;99.90
22503;DHT22;11418;48.118;9.992;2022-08-03T05:44:19;17.10;99.90
22503;DHT22;11418;48.118;9.992;2022-08-03T05:48:19;17.40;99.90
22503;DHT22;11418;48.118;9.992;2022-08-03T05:52:20;17.70;99.90
22503;DHT22;11418;48.118;9.992;2022-08-03T05:56:21;17.90;99.90
22503;DHT22;11418;48.118;9.992;2022-08-03T06:00:23;18.80;99.90
22503;DHT22;11418;48.118;9.992;2022-08-03T06:04:24;20.20;99.90
22503;DHT22;11418;48.118;9.992;2022-08-03T06:08:24;21.40;99.90
22503;DHT22;11418;48.118;9.992;2022-08-03T06:12:25;22.40;99.90
22503;DHT22;11418;48.118;9.992;2022-08-03T06:16:26;23.10;99.90
22503;DHT22;11418;48.118;9.992;2022-08-03T06:20:26;24.20;99.90
22503;DHT22;11418;48.118;9.992;2022-08-03T06:24:27;25.30;99.90
22503;DHT22;11418;48.118;9.992;2022-08-03T06:28:27;25.80;99.90
22503;DHT22;11418;48.118;9.992;2022-08-03T06:32:28;26.10;99.90
22503;DHT22;11418;48.118;9.992;2022-08-03T06:36:28;26.50;99.90
22503;DHT22;11418;48.118;9.992;2022-08-03T06:40:31;27.00;99.90
22503;DHT22;11418;48.118;9.992;2022-08-03T06:44:34;27.10;99.90
22503;DHT22;11418;48.118;9.992;2022-08-03T06:48:35;27.40;99.90
22503;DHT22;11418;48.118;9.992;2022-08-03T06:52:35;27.70;99.90
22503;DHT22;11418;48.118;9.992;2022-08-03T06:56:36;28.20;99.90
22503;DHT22;11418;48.118;9.992;2022-08-03T07:00:36;29.10;99.90
22503;DHT22;11418;48.118;9.992;2022-08-03T07:04:37;29.30;99.90
22503;DHT22;11418;48.118;9.992;2022-08-03T07:08:37;29.50;99.90
22503;DHT22;11418;48.118;9.992;2022-08-03T07:12:39;29.20;99.90
22503;DHT22;11418;48.118;9.992;2022-08-03T07:16:40;29.10;99.90
22503;DHT22;11418;48.118;9.992;2022-08-03T07:20:41;28.80;99.90
22503;DHT22;11418;48.118;9.992;2022-08-03T07:24:41;28.80;99.90
22503;DHT22;11418;48.118;9.992;2022-08-03T07:28:42;28.60;99.90
22503;DHT22;11418;48.118;9.992;2022-08-03T07:32:43;28.60;99.90
22503;DHT22;11418;48.118;9.992;2022-08-03T07:36:43;28.60;99.90
22503;DHT22;11418;48.118;9.992;2022-08-03T07:40:44;28.70;99.90
22503;DHT22;11418;48.118;9.992;2022-08-03T07:44:44;28.80;99.90
22503;DHT22;11418;48.118;9.992;2022-08-03T07:48:45;28.90;99.90
22503;DHT22;11418;48.118;9.992;2022-08-03T07:52:45;29.00;99.90
22503;DHT22;11418;48.118;9.992;2022-08-03T07:56:49;29.70;99.90
22503;DHT22;11418;48.118;9.992;2022-08-03T08:00:49;30.00;99.90
22503;DHT22;11418;48.118;9.992;2022-08-03T08:04:52;30.60;99.90
22503;DHT22;11418;48.118;9.992;2022-08-03T08:08:52;30.20;99.10
22503;DHT22;11418;48.118;9.992;2022-08-03T08:12:55;30.80;99.90
22503;DHT22;11418;48.118;9.992;2022-08-03T08:16:56;30.90;99.90
22503;DHT22;11418;48.118;9.992;2022-08-03T08:20:57;31.20;93.00
22503;DHT22;11418;48.118;9.992;2022-08-03T08:24:58;30.90;94.20
22503;DHT22;11418;48.118;9.992;2022-08-03T08:28:58;30.80;95.70
22503;DHT22;11418;48.118;9.992;2022-08-03T08:32:59;31.00;92.30
22503;DHT22;11418;48.118;9.992;2022-08-03T08:37:00;30.90;94.40
22503;DHT22;11418;48.118;9.992;2022-08-03T08:41:01;31.40;94.70
22503;DHT22;11418;48.118;9.992;2022-08-03T08:45:02;31.60;90.60
22503;DHT22;11418;48.118;9.992;2022-08-03T08:49:08;31.50;91.00
22503;DHT22;11418;48.118;9.992;2022-08-03T08:53:10;31.20;90.20
22503;DHT22;11418;48.118;9.992;2022-08-03T08:57:12;30.90;91.00
22503;DHT22;11418;48.118;9.992;2022-08-03T09:01:12;31.10;94.00
22503;DHT22;11418;48.118;9.992;2022-08-03T09:05:17;31.30;91.80
22503;DHT22;11418;48.118;9.992;2022-08-03T09:09:18;31.50;91.40
22503;DHT22;11418;48.118;9.992;2022-08-03T09:13:18;31.40;91.80
22503;DHT22;11418;48.118;9.992;2022-08-03T09:17:19;31.30;91.80
22503;DHT22;11418;48.118;9.992;2022-08-03T09:21:25;31.20;84.10
22503;DHT22;11418;48.118;9.992;2022-08-03T09:25:32;31.30;86.50
22503;DHT22;11418;48.118;9.992;2022-08-03T09:29:33;31.40;84.10
22503;DHT22;11418;48.118;9.992;2022-08-03T09:33:46;31.30;82.40
22503;DHT22;11418;48.118;9.992;2022-08-03T09:38:13;31.10;91.20
22503;DHT22;11418;48.118;9.992;2022-08-03T09:42:16;30.70;82.50
22503;DHT22;11418;48.118;9.992;2022-08-03T09:46:17;30.40;83.60
22503;DHT22;11418;48.118;9.992;2022-08-03T09:50:18;30.80;84.10
22503;DHT22;11418;48.118;9.992;2022-08-03T09:54:29;30.80;83.20
22503;DHT22;11418;48.118;9.992;2022-08-03T09:58:30;30.90;87.10
22503;DHT22;11418;48.118;9.992;2022-08-03T10:02:31;30.80;79.40
22503;DHT22;11418;48.118;9.992;2022-08-03T10:06:32;30.70;84.80
22503;DHT22;11418;48.118;9.992;2022-08-03T10:10:41;30.50;80.30
22503;DHT22;11418;48.118;9.992;2022-08-03T10:14:43;30.30;81.90
22503;DHT22;11418;48.118;9.992;2022-08-03T10:18:44;30.20;84.70
22503;DHT22;11418;48.118;9.992;2022-08-03T10:22:46;30.30;88.30
22503;DHT22;11418;48.118;9.992;2022-08-03T10:26:48;30.60;82.00
22503;DHT22;11418;48.118;9.992;2022-08-03T10:30:51;30.70;85.10
22503;DHT22;11418;48.118;9.992;2022-08-03T10:34:59;30.80;79.80
22503;DHT22;11418;48.118;9.992;2022-08-03T10:39:02;30.90;73.30
22503;DHT22;11418;48.118;9.992;2022-08-03T10:43:08;31.10;79.90
22503;DHT22;11418;48.118;9.992;2022-08-03T10:47:09;31.40;77.70
22503;DHT22;11418;48.118;9.992;2022-08-03T10:51:11;32.50;68.70
22503;DHT22;11418;48.118;9.992;2022-08-03T10:55:36;33.30;68.60
22503;DHT22;11418;48.118;9.992;2022-08-03T10:59:56;33.20;69.00
22503;DHT22;11418;48.118;9.992;2022-08-03T11:08:32;33.60;59.60
22503;DHT22;11418;48.118;9.992;2022-08-03T11:12:36;34.10;60.20
22503;DHT22;11418;48.118;9.992;2022-08-03T11:20:58;35.20;57.40
22503;DHT22;11418;48.118;9.992;2022-08-03T11:24:59;35.00;55.90
22503;DHT22;11418;48.118;9.992;2022-08-03T11:29:28;33.70;57.60
22503;DHT22;11418;48.118;9.992;2022-08-03T11:33:30;34.20;54.60
22503;DHT22;11418;48.118;9.992;2022-08-03T11:37:30;35.40;52.00
22503;DHT22;11418;48.118;9.992;2022-08-03T11:41:32;36.60;54.30
22503;DHT22;11418;48.118;9.992;2022-08-03T11:45:35;36.90;49.90
22503;DHT22;11418;48.118;9.992;2022-08-03T11:49:37;36.50;53.10
22503;DHT22;11418;48.118;9.992;2022-08-03T11:53:39;35.70;52.00
22503;DHT22;11418;48.118;9.992;2022-08-03T11:57:40;35.90;54.30
22503;DHT22;11418;48.118;9.992;2022-08-03T12:01:40;35.60;50.90
22503;DHT22;11418;48.118;9.992;2022-08-03T12:05:49;36.30;48.30
22503;DHT22;11418;48.118;9.992;2022-08-03T12:10:10;38.00;52.60
22503;DHT22;11418;48.118;9.992;2022-08-03T12:14:15;38.50;43.60
22503;DHT22;11418;48.118;9.992;2022-08-03T12:18:17;38.20;47.40
22503;DHT22;11418;48.118;9.992;2022-08-03T12:22:33;39.10;43.40
22503;DHT22;11418;48.118;9.992;2022-08-03T12:26:48;39.60;44.50
22503;DHT22;11418;48.118;9.992;2022-08-03T12:30:51;38.80;47.80
22503;DHT22;11418;48.118;9.992;2022-08-03T12:34:52;37.90;47.30
22503;DHT22;11418;48.118;9.992;2022-08-03T12:39:02;37.10;44.30
22503;DHT22;11418;48.118;9.992;2022-08-03T12:43:10;37.50;49.00
22503;DHT22;11418;48.118;9.992;2022-08-03T12:47:11;38.20;44.60
22503;DHT22;11418;48.118;9.992;2022-08-03T12:51:12;38.20;45.80
22503;DHT22;11418;48.118;9.992;2022-08-03T12:55:18;38.40;48.60
22503;DHT22;11418;48.118;9.992;2022-08-03T12:59:24;39.40;46.10
22503;DHT22;11418;48.118;9.992;2022-08-03T13:03:25;39.80;41.70
22503;DHT22;11418;48.118;9.992;2022-08-03T13:07:26;41.30;42.80
22503;DHT22;11418;48.118;9.992;2022-08-03T13:11:27;40.10;42.60
22503;DHT22;11418;48.118;9.992;2022-08-03T13:15:28;38.80;41.20
22503;DHT22;11418;48.118;9.992;2022-08-03T13:19:31;39.80;41.40
22503;DHT22;11418;48.118;9.992;2022-08-03T13:23:31;41.40;36.60
22503;DHT22;11418;48.118;9.992;2022-08-03T13:27:33;42.20;36.80
22503;DHT22;11418;48.118;9.992;2022-08-03T13:31:33;41.70;37.20
22503;DHT22;11418;48.118;9.992;2022-08-03T13:35:34;41.30;36.70
22503;DHT22;11418;48.118;9.992;2022-08-03T13:39:34;41.50;38.60
22503;DHT22;11418;48.118;9.992;2022-08-03T13:43:35;42.40;38.40
22503;DHT22;11418;48.118;9.992;2022-08-03T13:47:36;40.40;39.20
22503;DHT22;11418;48.118;9.992;2022-08-03T13:51:37;40.50;38.80
22503;DHT22;11418;48.118;9.992;2022-08-03T13:55:37;41.20;38.70
22503;DHT22;11418;48.118;9.992;2022-08-03T13:59:38;39.50;41.00
22503;DHT22;11418;48.118;9.992;2022-08-03T14:03:38;40.20;42.40
22503;DHT22;11418;48.118;9.992;2022-08-03T14:07:39;42.10;38.40
22503;DHT22;11418;48.118;9.992;2022-08-03T14:11:41;43.90;36.00
22503;DHT22;11418;48.118;9.992;2022-08-03T14:15:42;44.40;34.40
22503;DHT22;11418;48.118;9.992;2022-08-03T14:19:43;41.60;39.50
22503;DHT22;11418;48.118;9.992;2022-08-03T14:23:43;39.40;41.00
22503;DHT22;11418;48.118;9.992;2022-08-03T14:27:44;40.40;39.70
22503;DHT22;11418;48.118;9.992;2022-08-03T14:31:44;40.20;39.40
22503;DHT22;11418;48.118;9.992;2022-08-03T14:35:45;40.90;39.00
22503;DHT22;11418;48.118;9.992;2022-08-03T14:39:46;42.10;36.30
22503;DHT22;11418;48.118;9.992;2022-08-03T14:43:47;42.10;36.30
22503;DHT22;11418;48.118;9.992;2022-08-03T14:47:48;41.30;39.90
22503;DHT22;11418;48.118;9.992;2022-08-03T14:51:48;42.80;34.40
22503;DHT22;11418;48.118;9.992;2022-08-03T14:55:49;43.30;38.40
22503;DHT22;11418;48.118;9.992;2022-08-03T14:59:50;42.30;37.30
22503;DHT22;11418;48.118;9.992;2022-08-03T15:03:50;42.20;34.60
22503;DHT22;11418;48.118;9.992;2022-08-03T15:07:51;41.60;37.90
22503;DHT22;11418;48.118;9.992;2022-08-03T15:11:51;42.60;34.30
22503;DHT22;11418;48.118;9.992;2022-08-03T15:15:52;43.80;33.10
22503;DHT22;11418;48.118;9.992;2022-08-03T15:19:52;44.70;33.00
22503;DHT22;11418;48.118;9.992;2022-08-03T15:23:53;45.00;30.60
22503;DHT22;11418;48.118;9.992;2022-08-03T15:27:53;44.70;31.30
22503;DHT22;11418;48.118;9.992;2022-08-03T15:31:54;44.80;32.40
22503;DHT22;11418;48.118;9.992;2022-08-03T15:35:55;45.10;31.10
22503;DHT22;11418;48.118;9.992;2022-08-03T15:39:55;45.30;32.40
22503;DHT22;11418;48.118;9.992;2022-08-03T15:43:56;44.30;30.30
22503;DHT22;11418;48.118;9.992;2022-08-03T15:47:57;41.90;33.60
22503;DHT22;11418;48.118;9.992;2022-08-03T15:51:57;38.00;41.50
22503;DHT22;11418;48.118;9.992;2022-08-03T15:55:58;34.90;46.40
22503;DHT22;11418;48.118;9.992;2022-08-03T15:59:59;33.50;43.50
22503;DHT22;11418;48.118;9.992;2022-08-03T16:04:00;32.70;55.30
22503;DHT22;11418;48.118;9.992;2022-08-03T16:08:00;32.00;54.00
22503;DHT22;11418;48.118;9.992;2022-08-03T16:12:01;31.00;53.70
22503;DHT22;11418;48.118;9.992;2022-08-03T16:16:02;30.70;54.90
22503;DHT22;11418;48.118;9.992;2022-08-03T16:20:07;30.50;59.70
22503;DHT22;11418;48.118;9.992;2022-08-03T16:24:08;30.30;58.20
22503;DHT22;11418;48.118;9.992;2022-08-03T16:28:08;30.30;58.80
22503;DHT22;11418;48.118;9.992;2022-08-03T16:32:10;30.10;59.60
22503;DHT22;11418;48.118;9.992;2022-08-03T16:36:10;30.00;56.00
22503;DHT22;11418;48.118;9.992;2022-08-03T16:40:12;29.90;61.30
22503;DHT22;11418;48.118;9.992;2022-08-03T16:44:12;29.60;59.80
22503;DHT22;11418;48.118;9.992;2022-08-03T16:48:14;29.40;64.30
22503;DHT22;11418;48.118;9.992;2022-08-03T16:52:14;29.60;54.50
22503;DHT22;11418;48.118;9.992;2022-08-03T16:56:15;30.20;61.50
22503;DHT22;11418;48.118;9.992;2022-08-03T17:00:15;30.80;58.60
22503;DHT22;11418;48.118;9.992;2022-08-03T17:04:17;29.80;61.50
22503;DHT22;11418;48.118;9.992;2022-08-03T17:08:17;28.80;61.70
22503;DHT22;11418;48.118;9.992;2022-08-03T17:12:18;28.30;63.80
22503;DHT22;11418;48.118;9.992;2022-08-03T17:16:19;27.80;68.60
22503;DHT22;11418;48.118;9.992;2022-08-03T17:20:20;27.50;65.50
22503;DHT22;11418;48.118;9.992;2022-08-03T17:24:34;27.20;70.00
22503;DHT22;11418;48.118;9.992;2022-08-03T17:28:44;26.80;70.80
22503;DHT22;11418;48.118;9.992;2022-08-03T17:32:46;26.50;70.50
22503;DHT22;11418;48.118;9.992;2022-08-03T17:36:47;26.20;69.70
22503;DHT22;11418;48.118;9.992;2022-08-03T17:40:48;26.10;70.90
22503;DHT22;11418;48.118;9.992;2022-08-03T17:44:50;26.00;71.60
22503;DHT22;11418;48.118;9.992;2022-08-03T17:48:51;25.80;74.10
22503;DHT22;11418;48.118;9.992;2022-08-03T17:53:02;25.60;74.40
22503;DHT22;11418;48.118;9.992;2022-08-03T17:57:28;25.50;74.20
22503;DHT22;11418;48.118;9.992;2022-08-03T18:01:55;25.40;75.70
22503;DHT22;11418;48.118;9.992;2022-08-03T18:06:14;25.40;73.80
22503;DHT22;11418;48.118;9.992;2022-08-03T18:10:21;25.40;76.80
22503;DHT22;11418;48.118;9.992;2022-08-03T18:14:26;25.30;78.70
22503;DHT22;11418;48.118;9.992;2022-08-03T18:18:32;25.30;79.60
22503;DHT22;11418;48.118;9.992;2022-08-03T18:22:34;25.10;83.20
22503;DHT22;11418;48.118;9.992;2022-08-03T18:26:36;25.10;83.10
22503;DHT22;11418;48.118;9.992;2022-08-03T18:30:37;24.70;89.20
22503;DHT22;11418;48.118;9.992;2022-08-03T18:34:42;24.30;91.80
22503;DHT22;11418;48.118;9.992;2022-08-03T18:38:45;24.10;91.90
22503;DHT22;11418;48.118;9.992;2022-08-03T18:42:46;23.90;93.70
22503;DHT22;11418;48.118;9.992;2022-08-03T18:47:06;23.70;95.10
22503;DHT22;11418;48.118;9.992;2022-08-03T18:51:13;23.70;96.40
22503;DHT22;11418;48.118;9.992;2022-08-03T18:55:18;23.50;98.80
22503;DHT22;11418;48.118;9.992;2022-08-03T19:03:46;23.20;99.90
22503;DHT22;11418;48.118;9.992;2022-08-03T19:07:57;22.80;99.90
22503;DHT22;11418;48.118;9.992;2022-08-03T19:12:04;22.50;99.90
22503;DHT22;11418;48.118;9.992;2022-08-03T19:16:09;22.00;99.90
22503;DHT22;11418;48.118;9.992;2022-08-03T19:20:12;21.80;99.90
22503;DHT22;11418;48.118;9.992;2022-08-03T19:24:14;21.70;99.90
22503;DHT22;11418;48.118;9.992;2022-08-03T19:28:16;21.50;99.90
22503;DHT22;11418;48.118;9.992;2022-08-03T19:32:17;21.00;99.90
22503;DHT22;11418;48.118;9.992;2022-08-03T19:36:21;20.60;99.90
22503;DHT22;11418;48.118;9.992;2022-08-03T19:40:22;20.60;99.90
22503;DHT22;11418;48.118;9.992;2022-08-03T19:44:27;20.50;99.90
22503;DHT22;11418;48.118;9.992;2022-08-03T19:48:30;20.40;99.90
22503;DHT22;11418;48.118;9.992;2022-08-03T19:52:35;20.40;99.90
22503;DHT22;11418;48.118;9.992;2022-08-03T19:56:40;20.30;99.90
22503;DHT22;11418;48.118;9.992;2022-08-03T20:00:43;20.20;99.90
22503;DHT22;11418;48.118;9.992;2022-08-03T20:04:43;20.10;99.90
22503;DHT22;11418;48.118;9.992;2022-08-03T20:08:44;20.20;99.90
22503;DHT22;11418;48.118;9.992;2022-08-03T20:12:46;20.10;99.90
22503;DHT22;11418;48.118;9.992;2022-08-03T20:16:47;20.00;99.90
22503;DHT22;11418;48.118;9.992;2022-08-03T20:20:49;19.80;99.90
22503;DHT22;11418;48.118;9.992;2022-08-03T20:24:53;19.90;99.90
22503;DHT22;11418;48.118;9.992;2022-08-03T20:28:58;20.00;99.90
22503;DHT22;11418;48.118;9.992;2022-08-03T20:33:00;19.90;99.90
22503;DHT22;11418;48.118;9.992;2022-08-03T20:37:01;19.70;99.90
22503;DHT22;11418;48.118;9.992;2022-08-03T20:41:02;19.70;99.90
22503;DHT22;11418;48.118;9.992;2022-08-03T20:45:03;19.50;99.90
22503;DHT22;11418;48.118;9.992;2022-08-03T20:49:05;19.20;99.90
22503;DHT22;11418;48.118;9.992;2022-08-03T20:53:06;19.20;99.90
22503;DHT22;11418;48.118;9.992;2022-08-03T20:57:07;19.20;99.90
22503;DHT22;11418;48.118;9.992;2022-08-03T21:01:10;18.90;99.90
22503;DHT22;11418;48.118;9.992;2022-08-03T21:05:11;18.60;99.90
22503;DHT22;11418;48.118;9.992;2022-08-03T21:09:21;18.60;99.90
22503;DHT22;11418;48.118;9.992;2022-08-03T21:13:30;18.40;99.90
22503;DHT22;11418;48.118;9.992;2022-08-03T21:17:43;18.30;99.90
22503;DHT22;11418;48.118;9.992;2022-08-03T21:21:46;18.40;99.90
22503;DHT22;11418;48.118;9.992;2022-08-03T21:25:48;18.40;99.90
22503;DHT22;11418;48.118;9.992;2022-08-03T21:29:50;18.10;99.90
22503;DHT22;11418;48.118;9.992;2022-08-03T21:33:57;18.20;99.90
22503;DHT22;11418;48.118;9.992;2022-08-03T21:37:58;18.10;99.90
22503;DHT22;11418;48.118;9.992;2022-08-03T21:42:17;18.00;99.90
22503;DHT22;11418;48.118;9.992;2022-08-03T21:46:19;17.80;99.90
22503;DHT22;11418;48.118;9.992;2022-08-03T21:50:21;17.70;99.90
22503;DHT22;11418;48.118;9.992;2022-08-03T21:54:23;17.60;99.90
22503;DHT22;11418;48.118;9.992;2022-08-03T21:58:42;17.80;99.90
22503;DHT22;11418;48.118;9.992;2022-08-03T22:02:47;17.90;99.90
22503;DHT22;11418;48.118;9.992;2022-08-03T22:06:49;17.80;99.90
22503;DHT22;11418;48.118;9.992;2022-08-03T22:10:50;17.90;99.90
22503;DHT22;11418;48.118;9.992;2022-08-03T22:14:52;17.90;99.90
22503;DHT22;11418;48.118;9.992;2022-08-03T22:18:53;17.80;99.90
22503;DHT22;11418;48.118;9.992;2022-08-03T22:22:57;17.60;99.90
22503;DHT22;11418;48.118;9.992;2022-08-03T22:27:00;17.30;99.90
22503;DHT22;11418;48.118;9.992;2022-08-03T22:31:20;17.20;99.90
22503;DHT22;11418;48.118;9.992;2022-08-03T22:35:23;17.30;99.90
22503;DHT22;11418;48.118;9.992;2022-08-03T22:39:26;17.00;99.90
22503;DHT22;11418;48.118;9.992;2022-08-03T22:43:27;16.80;99.90
22503;DHT22;11418;48.118;9.992;2022-08-03T22:47:28;16.60;99.90
22503;DHT22;11418;48.118;9.992;2022-08-03T22:51:28;16.60;99.90
22503;DHT22;11418;48.118;9.992;2022-08-03T22:55:30;16.70;99.90
22503;DHT22;11418;48.118;9.992;2022-08-03T22:59:31;17.00;99.90
22503;DHT22;11418;48.118;9.992;2022-08-03T23:03:34;17.10;99.90
22503;DHT22;11418;48.118;9.992;2022-08-03T23:07:37;16.70;99.90
22503;DHT22;11418;48.118;9.992;2022-08-03T23:11:39;16.90;99.90
22503;DHT22;11418;48.118;9.992;2022-08-03T23:15:40;16.80;99.90
22503;DHT22;11418;48.118;9.992;2022-08-03T23:19:42;16.60;99.90
22503;DHT22;11418;48.118;9.992;2022-08-03T23:23:43;16.40;99.90
22503;DHT22;11418;48.118;9.992;2022-08-03T23:27:48;16.10;99.90
22503;DHT22;11418;48.118;9.992;2022-08-03T23:31:48;16.00;99.90
22503;DHT22;11418;48.118;9.992;2022-08-03T23:35:53;15.90;99.90
22503;DHT22;11418;48.118;9.992;2022-08-03T23:39:58;16.00;99.90
22503;DHT22;11418;48.118;9.992;2022-08-03T23:44:02;16.20;99.90
22503;DHT22;11418;48.118;9.992;2022-08-03T23:48:03;16.20;99.90
22503;DHT22;11418;48.118;9.992;2022-08-03T23:56:29;16.30;99.90
